createdAt,value
2017-11-04T00:01:03.622Z,13.80
2017-11-04T00:03:31.914Z,14.43
2017-11-04T00:06:00.421Z,12.83
2017-11-04T00:08:28.930Z,12.70
2017-11-04T00:10:57.471Z,13.97
2017-11-04T00:13:26.716Z,12.93
2017-11-04T00:15:55.171Z,13.10
2017-11-04T00:18:23.672Z,14.20
2017-11-04T00:20:52.916Z,12.80
2017-11-04T00:23:21.448Z,13.80
2017-11-04T00:25:49.899Z,12.83
2017-11-04T00:28:18.396Z,13.63
2017-11-04T00:30:46.906Z,12.13
2017-11-04T00:33:15.397Z,12.37
2017-11-04T00:35:43.902Z,13.17
2017-11-04T00:38:12.386Z,14.70
2017-11-04T00:40:40.827Z,12.77
2017-11-04T00:43:09.319Z,11.57
2017-11-04T00:45:38.577Z,13.37
2017-11-04T00:48:07.156Z,13.70
2017-11-04T00:50:36.364Z,11.30
2017-11-04T00:53:05.586Z,12.27
2017-11-04T00:55:34.050Z,12.90
2017-11-04T00:58:03.254Z,12.63
2017-11-04T01:00:32.538Z,11.60
2017-11-04T01:03:00.980Z,13.57
2017-11-04T01:05:29.418Z,12.40
2017-11-04T01:07:57.896Z,13.43
2017-11-04T01:10:26.369Z,13.70
2017-11-04T01:12:54.859Z,11.60
2017-11-04T01:15:23.294Z,12.40
2017-11-04T01:17:51.768Z,13.80
2017-11-04T01:20:20.272Z,12.30
2017-11-04T01:22:48.781Z,11.60
2017-11-04T01:25:17.274Z,14.23
2017-11-04T01:27:45.755Z,12.40
2017-11-04T01:30:13.853Z,14.13
2017-11-04T01:32:42.360Z,12.23
2017-11-04T01:35:10.766Z,14.03
2017-11-04T01:37:39.316Z,16.20
2017-11-04T01:40:07.834Z,13.83
2017-11-04T01:42:36.310Z,14.33
2017-11-04T01:45:04.432Z,13.23
2017-11-04T01:47:32.997Z,13.53
2017-11-04T01:50:01.506Z,13.00
2017-11-04T01:52:29.614Z,12.67
2017-11-04T01:54:58.043Z,12.17
2017-11-04T01:57:26.569Z,12.03
2017-11-04T01:59:55.007Z,12.53
2017-11-04T02:02:24.259Z,13.47
2017-11-04T02:04:52.714Z,12.40
2017-11-04T02:07:20.494Z,11.83
2017-11-04T02:09:49.746Z,12.17
2017-11-04T02:12:18.246Z,11.83
2017-11-04T02:14:46.102Z,11.37
2017-11-04T02:17:14.606Z,12.13
2017-11-04T02:19:42.383Z,11.20
2017-11-04T02:22:10.214Z,11.43
2017-11-04T02:24:38.663Z,11.17
2017-11-04T02:27:07.195Z,11.87
2017-11-04T02:29:35.645Z,9.90
2017-11-04T02:32:04.141Z,11.60
2017-11-04T02:34:32.635Z,11.70
2017-11-04T02:37:01.121Z,10.37
2017-11-04T02:39:29.261Z,12.33
2017-11-04T02:41:58.526Z,11.97
2017-11-04T02:44:26.999Z,11.83
2017-11-04T02:46:55.445Z,11.63
2017-11-04T02:49:23.916Z,11.70
2017-11-04T02:51:52.383Z,11.70
2017-11-04T02:54:20.866Z,11.53
2017-11-04T02:56:49.360Z,11.67
2017-11-04T02:59:18.568Z,11.27
2017-11-04T03:01:47.851Z,10.83
2017-11-04T03:04:16.314Z,12.53
2017-11-04T03:06:44.796Z,12.23
2017-11-04T03:09:13.287Z,12.43
2017-11-04T03:11:41.748Z,11.60
2017-11-04T03:14:11.001Z,11.80
2017-11-04T03:16:39.498Z,12.90
2017-11-04T03:19:07.991Z,10.53
2017-11-04T03:21:36.279Z,12.57
2017-11-04T03:24:04.393Z,11.00
2017-11-04T03:26:32.890Z,11.13
2017-11-04T03:29:01.382Z,10.70
2017-11-04T03:31:29.886Z,12.00
2017-11-04T03:33:58.392Z,11.90
2017-11-04T03:36:26.683Z,12.43
2017-11-04T03:38:55.969Z,11.20
2017-11-04T03:41:24.476Z,11.13
2017-11-04T03:43:52.997Z,11.47
2017-11-04T03:46:21.462Z,11.07
2017-11-04T03:48:49.898Z,12.47
2017-11-04T03:51:18.377Z,13.50
2017-11-04T03:53:47.599Z,11.10
2017-11-04T03:56:15.793Z,12.07
2017-11-04T03:58:44.297Z,11.57
2017-11-04T04:01:12.787Z,11.80
2017-11-04T04:03:41.268Z,12.90
2017-11-04T04:06:10.541Z,11.80
2017-11-04T04:08:39.052Z,11.50
2017-11-04T04:11:07.578Z,10.73
2017-11-04T04:13:38.051Z,9.93
2017-11-04T04:16:06.633Z,10.80
2017-11-04T04:18:35.108Z,11.40
2017-11-04T04:21:03.599Z,11.30
2017-11-04T04:23:32.115Z,10.67
2017-11-04T04:26:00.621Z,13.13
2017-11-04T04:28:29.102Z,13.17
2017-11-04T04:30:57.573Z,13.07
2017-11-04T04:33:26.114Z,12.03
2017-11-04T04:35:54.607Z,11.47
2017-11-04T04:38:22.909Z,10.93
2017-11-04T04:40:51.223Z,11.80
2017-11-04T04:43:20.275Z,10.50
2017-11-04T04:45:48.605Z,10.97
2017-11-04T04:48:17.204Z,10.77
2017-11-04T04:50:46.474Z,11.13
2017-11-04T04:53:14.966Z,11.27
2017-11-04T04:55:43.446Z,11.50
2017-11-04T04:58:12.657Z,9.00
2017-11-04T05:00:41.108Z,10.50
2017-11-04T05:03:09.420Z,12.30
2017-11-04T05:05:38.693Z,10.17
2017-11-04T05:08:07.157Z,10.27
2017-11-04T05:10:35.712Z,12.23
2017-11-04T05:13:04.229Z,12.40
2017-11-04T05:15:32.710Z,10.93
2017-11-04T05:18:01.220Z,11.27
2017-11-04T05:20:29.686Z,10.07
2017-11-04T05:22:58.225Z,11.60
2017-11-04T05:25:26.715Z,9.90
2017-11-04T05:27:56.954Z,10.30
2017-11-04T05:30:25.138Z,11.67
2017-11-04T05:32:53.625Z,11.10
2017-11-04T05:35:22.151Z,13.10
2017-11-04T05:37:50.639Z,10.20
2017-11-04T05:40:19.949Z,14.57
2017-11-04T05:42:48.441Z,13.50
2017-11-04T05:45:16.903Z,12.33
2017-11-04T05:47:46.199Z,12.90
2017-11-04T05:50:14.509Z,12.23
2017-11-04T05:52:42.978Z,13.13
2017-11-04T05:55:11.486Z,13.17
2017-11-04T05:57:42.570Z,12.27
2017-11-04T06:00:11.104Z,13.53
2017-11-04T06:02:39.416Z,12.50
2017-11-04T06:05:07.734Z,12.37
2017-11-04T06:07:36.235Z,12.07
2017-11-04T06:10:04.530Z,12.70
2017-11-04T06:12:33.050Z,12.77
2017-11-04T06:15:01.546Z,14.73
2017-11-04T06:17:30.075Z,12.30
2017-11-04T06:19:58.662Z,11.63
2017-11-04T06:22:26.974Z,13.00
2017-11-04T06:24:55.492Z,12.00
2017-11-04T06:27:24.010Z,11.33
2017-11-04T06:29:52.411Z,11.07
2017-11-04T06:32:20.918Z,12.20
2017-11-04T06:34:49.053Z,11.37
2017-11-04T06:37:17.559Z,12.30
2017-11-04T06:39:46.106Z,10.40
2017-11-04T06:42:14.613Z,11.27
2017-11-04T06:44:47.035Z,12.27
2017-11-04T06:47:15.550Z,11.90
2017-11-04T06:49:44.087Z,11.23
2017-11-04T06:52:12.552Z,11.10
2017-11-04T06:54:41.031Z,11.77
2017-11-04T06:57:09.515Z,12.40
2017-11-04T06:59:38.104Z,11.00
2017-11-04T07:02:06.652Z,10.87
2017-11-04T07:04:35.110Z,10.60
2017-11-04T07:07:03.578Z,10.77
2017-11-04T07:09:32.101Z,10.97
2017-11-04T07:12:00.579Z,11.60
2017-11-04T07:14:29.093Z,10.20
2017-11-04T07:16:57.634Z,9.53
2017-11-04T07:19:26.063Z,8.97
2017-11-04T07:21:54.575Z,11.17
2017-11-04T07:24:23.117Z,11.10
2017-11-04T07:26:51.598Z,11.43
2017-11-04T07:29:20.131Z,10.03
2017-11-04T07:31:48.626Z,11.07
2017-11-04T07:34:16.961Z,12.20
2017-11-04T07:36:44.901Z,12.30
2017-11-04T07:39:13.439Z,13.67
2017-11-04T07:41:42.151Z,12.60
2017-11-04T07:44:10.690Z,13.93
2017-11-04T07:46:39.231Z,11.70
2017-11-04T07:49:07.711Z,12.00
2017-11-04T07:51:36.199Z,14.30
2017-11-04T07:54:04.602Z,12.20
2017-11-04T07:56:33.090Z,14.20
2017-11-04T07:59:08.223Z,13.80
2017-11-04T08:01:36.700Z,13.20
2017-11-04T08:04:05.193Z,15.10
2017-11-04T08:06:33.703Z,14.83
2017-11-04T08:09:02.210Z,15.37
2017-11-04T08:11:32.572Z,17.73
2017-11-04T08:14:01.057Z,15.17
2017-11-04T08:16:29.579Z,15.20
2017-11-04T08:18:58.081Z,14.50
2017-11-04T08:21:26.566Z,14.60
2017-11-04T08:24:05.352Z,15.27
2017-11-04T08:26:33.837Z,13.53
2017-11-04T08:29:02.334Z,13.93
2017-11-04T08:31:30.846Z,15.63
2017-11-04T08:33:59.307Z,15.60
2017-11-04T08:36:40.224Z,15.23
2017-11-04T08:39:10.107Z,16.33
2017-11-04T08:41:38.558Z,17.20
2017-11-04T08:44:16.047Z,17.17
2017-11-04T08:46:48.338Z,16.93
2017-11-04T08:49:16.613Z,18.07
2017-11-04T08:54:50.502Z,15.90
2017-11-04T08:57:20.044Z,14.27
2017-11-04T08:59:49.351Z,15.40
2017-11-04T09:02:18.629Z,14.73
2017-11-04T09:04:47.111Z,16.57
2017-11-04T09:07:32.742Z,14.67
2017-11-04T09:10:02.031Z,14.27
2017-11-04T09:12:33.874Z,14.13
2017-11-04T09:15:05.707Z,14.07
2017-11-04T09:17:34.217Z,14.57
2017-11-04T09:22:41.619Z,14.40
2017-11-04T09:25:25.869Z,13.30
2017-11-04T09:27:54.391Z,11.20
2017-11-04T09:30:22.896Z,13.43
2017-11-04T09:32:52.196Z,12.27
2017-11-04T09:35:20.678Z,12.70
2017-11-04T09:37:55.831Z,8.37
2017-11-04T09:40:24.340Z,6.70
2017-11-04T09:42:52.818Z,11.17
2017-11-04T09:45:21.312Z,8.50
2017-11-04T09:47:49.799Z,8.17
2017-11-04T09:50:18.293Z,9.50
2017-11-04T09:52:46.774Z,8.70
2017-11-04T09:55:21.200Z,11.97
2017-11-04T09:57:51.658Z,10.83
2017-11-04T10:00:20.158Z,8.43
2017-11-04T10:02:48.652Z,9.33
2017-11-04T10:05:17.166Z,7.70
2017-11-04T10:07:46.606Z,10.80
2017-11-04T10:10:16.010Z,10.27
2017-11-04T10:12:44.363Z,11.20
2017-11-04T10:15:12.179Z,8.63
2017-11-04T10:17:39.981Z,8.80
2017-11-04T10:20:09.254Z,11.90
2017-11-04T10:22:37.742Z,9.93
2017-11-04T10:25:09.522Z,8.90
2017-11-04T10:27:38.074Z,11.10
2017-11-04T10:30:06.553Z,10.43
2017-11-04T10:32:35.602Z,9.47
2017-11-04T10:35:03.746Z,10.87
2017-11-04T10:37:36.794Z,9.40
2017-11-04T10:40:04.671Z,7.03
2017-11-04T10:42:43.333Z,11.63
2017-11-04T10:45:11.810Z,10.93
2017-11-04T10:47:40.357Z,8.80
2017-11-04T10:50:09.638Z,6.97
2017-11-04T10:52:38.156Z,9.57
2017-11-04T10:55:06.720Z,9.90
2017-11-04T10:57:35.208Z,9.87
2017-11-04T11:00:03.343Z,6.53
2017-11-04T11:02:31.874Z,8.23
2017-11-04T11:05:00.354Z,6.00
2017-11-04T11:10:35.014Z,8.43
2017-11-04T11:13:03.529Z,7.80
2017-11-04T11:15:32.014Z,6.40
2017-11-04T11:18:00.443Z,6.00
2017-11-04T11:20:31.524Z,5.17
2017-11-04T11:23:01.950Z,5.03
2017-11-04T11:25:30.586Z,5.77
2017-11-04T11:27:59.043Z,8.53
2017-11-04T11:30:40.680Z,6.70
2017-11-04T11:33:09.180Z,7.70
2017-11-04T11:35:37.735Z,4.47
2017-11-04T11:38:06.275Z,8.67
2017-11-04T11:40:34.823Z,7.70
2017-11-04T11:43:03.370Z,7.97
2017-11-04T11:45:31.885Z,9.47
2017-11-04T11:48:00.384Z,5.70
2017-11-04T11:50:31.049Z,7.33
2017-11-04T11:53:05.092Z,9.00
2017-11-04T11:55:34.358Z,4.67
2017-11-04T11:58:02.814Z,6.30
2017-11-04T12:00:31.314Z,5.57
2017-11-04T12:02:59.847Z,7.67
2017-11-04T12:05:28.356Z,5.57
2017-11-04T12:07:56.904Z,8.40
2017-11-04T12:10:34.697Z,6.03
2017-11-04T12:13:03.260Z,6.00
2017-11-04T12:15:34.099Z,4.90
2017-11-04T12:18:02.589Z,5.50
2017-11-04T12:20:31.053Z,4.90
2017-11-04T12:22:59.830Z,6.03
2017-11-04T12:25:28.314Z,6.23
2017-11-04T12:27:57.762Z,6.90
2017-11-04T12:30:27.251Z,3.80
2017-11-04T12:32:56.562Z,5.70
2017-11-04T12:35:25.046Z,4.50
2017-11-04T12:37:53.653Z,4.40
2017-11-04T12:40:22.404Z,4.07
2017-11-04T12:42:50.883Z,2.40
2017-11-04T12:45:29.059Z,4.60
2017-11-04T12:47:57.578Z,5.67
2017-11-04T12:50:26.028Z,2.47
2017-11-04T12:52:54.506Z,3.03
2017-11-04T12:55:35.530Z,2.83
2017-11-04T12:58:05.178Z,3.00
2017-11-04T13:00:40.380Z,4.83
2017-11-04T13:03:15.073Z,4.53
2017-11-04T13:05:44.602Z,3.50
2017-11-04T13:08:20.374Z,3.53
2017-11-04T13:10:48.861Z,2.87
2017-11-04T13:13:18.152Z,2.20
2017-11-04T13:15:46.632Z,3.40
2017-11-04T13:18:15.048Z,3.07
2017-11-04T13:20:44.575Z,2.43
2017-11-04T13:23:14.267Z,2.70
2017-11-04T13:25:42.838Z,4.10
2017-11-04T13:28:11.459Z,3.13
2017-11-04T13:30:39.920Z,4.40
2017-11-04T13:33:08.389Z,3.13
2017-11-04T13:35:36.911Z,4.00
2017-11-04T13:38:05.381Z,3.17
2017-11-04T13:40:34.015Z,3.77
2017-11-04T13:43:02.542Z,5.00
2017-11-04T13:45:31.036Z,2.73
2017-11-04T13:48:00.290Z,3.00
2017-11-04T13:50:29.463Z,3.10
2017-11-04T13:52:57.962Z,5.40
2017-11-04T13:55:27.175Z,4.50
2017-11-04T13:57:56.701Z,3.90
2017-11-04T14:00:26.162Z,4.97
2017-11-04T14:02:55.414Z,3.83
2017-11-04T14:05:24.676Z,3.70
2017-11-04T14:07:53.159Z,6.20
2017-11-04T14:10:21.685Z,4.20
2017-11-04T14:12:50.240Z,5.20
2017-11-04T14:15:18.748Z,3.03
2017-11-04T14:17:47.361Z,4.90
2017-11-04T14:20:15.851Z,5.70
2017-11-04T14:22:44.352Z,4.50
2017-11-04T14:25:12.829Z,5.00
2017-11-04T14:27:41.342Z,4.00
2017-11-04T14:30:10.562Z,3.37
2017-11-04T14:32:39.041Z,4.67
2017-11-04T14:35:07.543Z,4.03
2017-11-04T14:37:36.026Z,5.30
2017-11-04T14:40:04.482Z,5.33
2017-11-04T14:42:32.995Z,4.67
2017-11-04T14:45:01.474Z,3.73
2017-11-04T14:47:29.994Z,3.73
2017-11-04T14:49:59.087Z,5.87
2017-11-04T14:52:27.607Z,3.83
2017-11-04T14:54:55.780Z,6.03
2017-11-04T14:57:25.297Z,3.83
2017-11-04T14:59:54.807Z,6.80
2017-11-04T15:02:23.358Z,4.80
2017-11-04T15:04:51.877Z,4.97
2017-11-04T15:07:21.092Z,4.83
2017-11-04T15:09:50.345Z,4.63
2017-11-04T15:12:18.794Z,5.50
2017-11-04T15:14:48.044Z,6.10
2017-11-04T15:17:16.543Z,4.87
2017-11-04T15:19:45.054Z,5.83
2017-11-04T15:22:13.604Z,3.30
2017-11-04T15:24:42.134Z,5.07
2017-11-04T15:27:10.620Z,4.90
2017-11-04T15:29:39.214Z,3.37
2017-11-04T15:32:07.670Z,4.73
2017-11-04T15:34:36.156Z,6.20
2017-11-04T15:37:05.478Z,3.83
2017-11-04T15:39:34.036Z,3.53
2017-11-04T15:42:02.522Z,4.97
2017-11-04T15:44:31.041Z,5.70
2017-11-04T15:46:59.532Z,3.93
2017-11-04T15:49:28.804Z,3.63
2017-11-04T15:51:57.291Z,4.50
2017-11-04T15:54:25.791Z,4.53
2017-11-04T15:56:54.294Z,6.37
2017-11-04T15:59:22.792Z,4.10
2017-11-04T16:01:51.338Z,4.03
2017-11-04T16:04:19.643Z,4.30
2017-11-04T16:06:48.159Z,4.10
2017-11-04T16:09:16.657Z,5.67
2017-11-04T16:11:45.166Z,5.00
2017-11-04T16:14:13.706Z,5.40
2017-11-04T16:16:43.160Z,4.00
2017-11-04T16:19:11.754Z,5.30
2017-11-04T16:21:40.282Z,5.40
2017-11-04T16:24:08.790Z,4.50
2017-11-04T16:26:37.295Z,4.77
2017-11-04T16:29:06.890Z,2.80
2017-11-04T16:31:35.392Z,4.50
2017-11-04T16:34:03.505Z,4.10
2017-11-04T16:36:32.746Z,2.67
2017-11-04T16:39:01.269Z,3.80
2017-11-04T16:41:29.715Z,4.20
2017-11-04T16:43:58.254Z,1.97
2017-11-04T16:46:39.065Z,3.80
2017-11-04T16:49:08.439Z,3.20
2017-11-04T16:51:37.044Z,2.73
2017-11-04T16:54:08.721Z,3.97
2017-11-04T16:56:38.708Z,3.50
2017-11-04T16:59:10.289Z,2.10
2017-11-04T17:01:39.456Z,4.70
2017-11-04T17:04:07.953Z,4.17
2017-11-04T17:06:36.415Z,3.53
2017-11-04T17:09:04.268Z,5.00
2017-11-04T17:11:32.545Z,4.13
2017-11-04T17:14:05.122Z,3.27
2017-11-04T17:16:33.797Z,4.00
2017-11-04T17:19:03.083Z,3.80
2017-11-04T17:21:31.527Z,2.73
2017-11-04T17:24:00.835Z,4.70
2017-11-04T17:26:29.415Z,4.10
2017-11-04T17:28:58.674Z,2.27
2017-11-04T17:31:27.318Z,4.47
2017-11-04T17:33:55.800Z,3.87
2017-11-04T17:36:24.297Z,3.83
2017-11-04T17:38:53.970Z,4.10
2017-11-04T17:41:22.487Z,4.27
2017-11-04T17:43:50.973Z,4.83
2017-11-04T17:46:19.513Z,4.20
2017-11-04T17:48:47.990Z,4.00
2017-11-04T17:51:16.490Z,3.37
2017-11-04T17:53:44.960Z,4.10
2017-11-04T17:56:13.442Z,1.87
2017-11-04T17:58:41.994Z,3.13
2017-11-04T18:01:10.438Z,3.87
2017-11-04T18:03:38.957Z,2.63
2017-11-04T18:06:07.226Z,4.87
2017-11-04T18:08:35.707Z,3.50
2017-11-04T18:11:04.246Z,4.37
2017-11-04T18:13:33.519Z,3.83
2017-11-04T18:16:02.067Z,4.67
2017-11-04T18:18:30.550Z,4.90
2017-11-04T18:20:59.038Z,5.90
2017-11-04T18:23:27.589Z,3.43
2017-11-04T18:25:56.051Z,5.30
2017-11-04T18:28:24.555Z,4.20
2017-11-04T18:30:53.795Z,4.70
2017-11-04T18:33:22.281Z,5.07
2017-11-04T18:35:50.845Z,3.13
2017-11-04T18:38:20.126Z,4.87
2017-11-04T18:43:29.693Z,6.10
2017-11-04T18:45:58.309Z,5.77
2017-11-04T18:48:26.795Z,7.00
2017-11-04T18:50:55.426Z,4.57
2017-11-04T18:53:23.982Z,3.67
2017-11-04T18:55:53.215Z,7.17
2017-11-04T18:58:21.756Z,4.50
2017-11-04T19:00:50.282Z,4.47
2017-11-04T19:03:18.780Z,6.83
2017-11-04T19:05:47.304Z,6.00
2017-11-04T19:08:15.854Z,5.37
2017-11-04T19:10:44.372Z,5.83
2017-11-04T19:13:13.684Z,5.63
2017-11-04T19:15:42.158Z,6.50
2017-11-04T19:18:10.673Z,5.40
2017-11-04T19:20:39.154Z,5.40
2017-11-04T19:23:07.601Z,8.43
2017-11-04T19:25:36.208Z,4.87
2017-11-04T19:28:04.798Z,5.07
2017-11-04T19:30:34.180Z,7.00
2017-11-04T19:33:02.688Z,4.77
2017-11-04T19:35:31.271Z,4.97
2017-11-04T19:37:59.881Z,5.73
2017-11-04T19:40:29.114Z,3.60
2017-11-04T19:43:02.398Z,2.73
2017-11-04T19:45:30.832Z,4.50
2017-11-04T19:48:01.378Z,4.70
2017-11-04T19:50:30.719Z,4.60
2017-11-04T19:52:59.763Z,3.00
2017-11-04T19:55:28.853Z,3.77
2017-11-04T19:57:57.760Z,6.00
2017-11-04T20:00:26.558Z,6.20
2017-11-04T20:03:02.536Z,4.47
2017-11-04T20:05:31.226Z,9.53
2017-11-04T20:07:59.846Z,6.20
2017-11-04T20:10:30.769Z,3.87
2017-11-04T20:12:59.313Z,5.50
2017-11-04T20:15:28.821Z,5.63
2017-11-04T20:18:04.232Z,5.00
2017-11-04T20:20:33.472Z,5.90
2017-11-04T20:23:01.998Z,5.50
2017-11-04T20:25:32.574Z,4.73
2017-11-04T20:28:02.133Z,5.50
2017-11-04T20:30:31.400Z,4.33
2017-11-04T20:33:00.211Z,4.13
2017-11-04T20:35:28.714Z,7.00
2017-11-04T20:37:57.241Z,5.53
2017-11-04T20:40:25.483Z,3.40
2017-11-04T20:42:54.096Z,5.77
2017-11-04T20:45:23.446Z,4.20
2017-11-04T20:47:52.184Z,5.13
2017-11-04T20:50:20.800Z,6.37
2017-11-04T20:52:49.106Z,6.00
2017-11-04T20:55:17.798Z,5.87
2017-11-04T20:57:46.272Z,5.13
2017-11-04T21:00:15.504Z,4.30
2017-11-04T21:02:44.139Z,5.90
2017-11-04T21:05:13.527Z,6.13
2017-11-04T21:07:48.466Z,6.00
2017-11-04T21:10:16.961Z,5.57
2017-11-04T21:12:45.460Z,4.87
2017-11-04T21:15:14.000Z,5.40
2017-11-04T21:17:42.726Z,4.20
2017-11-04T21:20:11.096Z,4.80
2017-11-04T21:22:39.613Z,5.73
2017-11-04T21:25:08.187Z,5.60
2017-11-04T21:27:37.425Z,4.50
2017-11-04T21:30:05.974Z,4.83
2017-11-04T21:32:34.561Z,5.50
2017-11-04T21:35:03.107Z,4.83
2017-11-04T21:37:31.784Z,4.80
2017-11-04T21:40:00.347Z,5.57
2017-11-04T21:42:28.503Z,5.37
2017-11-04T21:44:56.946Z,5.13
2017-11-04T21:47:25.120Z,3.37
2017-11-04T21:49:55.343Z,5.40
2017-11-04T21:52:23.702Z,5.23
2017-11-04T21:54:52.174Z,5.27
2017-11-04T21:57:20.690Z,5.60
2017-11-04T21:59:49.796Z,6.50
2017-11-04T22:02:18.679Z,5.47
2017-11-04T22:04:47.905Z,5.90
2017-11-04T22:07:16.433Z,5.43
2017-11-04T22:09:45.174Z,5.70
2017-11-04T22:12:14.077Z,6.43
2017-11-04T22:14:48.797Z,6.20
2017-11-04T22:17:17.289Z,6.50
2017-11-04T22:19:45.492Z,6.00
2017-11-04T22:22:14.802Z,6.30
2017-11-04T22:24:42.961Z,5.87
2017-11-04T22:27:14.003Z,6.20
2017-11-04T22:29:42.499Z,6.33
2017-11-04T22:32:10.993Z,6.43
2017-11-04T22:34:39.737Z,6.20
2017-11-04T22:37:09.246Z,6.30
2017-11-04T22:39:37.553Z,7.00
2017-11-04T22:42:06.265Z,6.77
2017-11-04T22:44:35.734Z,6.80
2017-11-04T22:47:04.853Z,5.97
2017-11-04T22:49:34.345Z,6.03
2017-11-04T22:52:02.872Z,6.67
2017-11-04T22:54:30.981Z,6.87
2017-11-04T22:56:59.431Z,5.70
2017-11-04T22:59:28.007Z,6.40
2017-11-04T23:01:56.482Z,7.23
2017-11-04T23:04:24.950Z,5.90
2017-11-04T23:06:53.485Z,6.60
2017-11-04T23:09:21.997Z,6.50
2017-11-04T23:11:50.447Z,6.30
2017-11-04T23:14:19.706Z,6.33
2017-11-04T23:16:48.207Z,5.37
2017-11-04T23:19:16.711Z,5.47
2017-11-04T23:21:45.982Z,6.27
2017-11-04T23:24:14.444Z,7.37
2017-11-04T23:26:42.938Z,7.30
2017-11-04T23:29:12.206Z,6.93
2017-11-04T23:31:40.656Z,6.27
2017-11-04T23:34:09.202Z,7.20
2017-11-04T23:36:37.695Z,6.80
2017-11-04T23:39:06.161Z,7.00
2017-11-04T23:41:34.782Z,5.73
2017-11-04T23:44:03.263Z,6.57
2017-11-04T23:46:31.757Z,6.90
2017-11-04T23:49:00.216Z,6.37
2017-11-04T23:51:29.021Z,7.10
2017-11-04T23:53:57.502Z,6.40
2017-11-04T23:56:27.764Z,6.33
2017-11-04T23:58:56.292Z,5.90
